createdAt,value
2023-08-16T00:01:36.804Z,8.03
2023-08-16T00:04:06.768Z,9.70
2023-08-16T00:06:34.828Z,9.37
2023-08-16T00:09:03.797Z,10.43
2023-08-16T00:11:31.659Z,7.17
2023-08-16T00:13:59.677Z,9.63
2023-08-16T00:16:28.108Z,7.73
2023-08-16T00:18:56.060Z,11.43
2023-08-16T00:21:25.419Z,8.60
2023-08-16T00:23:53.492Z,7.63
2023-08-16T00:26:21.695Z,11.03
2023-08-16T00:28:49.762Z,8.63
2023-08-16T00:31:17.894Z,10.83
2023-08-16T00:33:45.821Z,11.23
2023-08-16T00:36:13.736Z,9.70
2023-08-16T00:38:44.571Z,10.07
2023-08-16T00:41:15.267Z,7.47
2023-08-16T00:43:43.298Z,9.57
2023-08-16T00:46:13.797Z,7.53
2023-08-16T00:48:44.225Z,7.30
2023-08-16T00:51:13.201Z,13.83
2023-08-16T00:53:43.481Z,8.83
2023-08-16T00:56:11.487Z,10.47
2023-08-16T00:58:39.666Z,7.13
2023-08-16T01:01:08.270Z,7.30
2023-08-16T01:03:36.950Z,7.17
2023-08-16T01:06:06.244Z,9.27
2023-08-16T01:08:34.848Z,7.37
2023-08-16T01:11:12.959Z,7.87
2023-08-16T01:13:48.330Z,6.40
2023-08-16T01:16:17.255Z,6.90
2023-08-16T01:18:46.549Z,9.47
2023-08-16T01:21:17.566Z,11.13
2023-08-16T01:23:55.392Z,9.17
2023-08-16T01:26:30.848Z,7.63
2023-08-16T01:29:01.104Z,8.60
2023-08-16T01:31:29.322Z,7.87
2023-08-16T01:33:58.201Z,8.87
2023-08-16T01:36:26.204Z,11.90
2023-08-16T01:38:54.361Z,8.40
2023-08-16T01:41:26.946Z,9.50
2023-08-16T01:43:58.322Z,10.63
2023-08-16T01:46:28.130Z,8.47
2023-08-16T01:48:58.160Z,8.07
2023-08-16T01:51:26.536Z,10.03
2023-08-16T01:53:55.647Z,9.77
2023-08-16T01:56:24.015Z,9.40
2023-08-16T01:58:51.954Z,9.60
2023-08-16T02:01:21.251Z,9.67
2023-08-16T02:03:49.339Z,10.77
2023-08-16T02:06:17.439Z,9.33
2023-08-16T02:08:45.357Z,10.27
2023-08-16T02:11:13.474Z,9.83
2023-08-16T02:13:43.930Z,9.73
2023-08-16T02:16:11.844Z,9.90
2023-08-16T02:18:41.629Z,10.63
2023-08-16T02:21:09.522Z,13.03
2023-08-16T02:23:37.543Z,10.17
2023-08-16T02:26:05.419Z,12.67
2023-08-16T02:28:33.306Z,12.17
2023-08-16T02:31:07.914Z,14.20
2023-08-16T02:33:36.030Z,14.37
2023-08-16T02:36:05.930Z,13.27
2023-08-16T02:38:33.869Z,20.03
2023-08-16T02:41:01.756Z,15.70
2023-08-16T02:43:29.692Z,13.37
2023-08-16T02:45:59.092Z,13.77
2023-08-16T02:48:27.262Z,14.67
2023-08-16T02:50:55.604Z,16.57
2023-08-16T02:53:24.873Z,15.27
2023-08-16T02:55:52.914Z,14.60
2023-08-16T02:58:20.812Z,16.10
2023-08-16T03:00:51.585Z,14.20
2023-08-16T03:03:20.169Z,19.07
2023-08-16T03:05:48.232Z,16.77
2023-08-16T03:08:16.079Z,16.10
2023-08-16T03:10:45.376Z,16.37
2023-08-16T03:13:13.262Z,17.27
2023-08-16T03:15:41.120Z,20.77
2023-08-16T03:18:09.013Z,16.83
2023-08-16T03:20:37.262Z,16.03
2023-08-16T03:23:05.411Z,18.33
2023-08-16T03:25:33.389Z,17.70
2023-08-16T03:28:02.621Z,17.37
2023-08-16T03:30:30.581Z,14.50
2023-08-16T03:32:58.608Z,19.57
2023-08-16T03:35:26.795Z,18.67
2023-08-16T03:37:54.860Z,22.27
2023-08-16T03:40:22.745Z,17.13
2023-08-16T03:42:50.638Z,15.10
2023-08-16T03:45:24.348Z,15.67
2023-08-16T03:47:53.115Z,16.17
2023-08-16T03:50:21.363Z,16.07
2023-08-16T03:52:49.306Z,17.20
2023-08-16T03:55:17.344Z,18.93
2023-08-16T03:57:45.242Z,17.03
2023-08-16T04:00:16.573Z,18.73
2023-08-16T04:02:45.905Z,20.10
2023-08-16T04:05:15.463Z,15.33
2023-08-16T04:07:43.536Z,18.70
2023-08-16T04:10:12.638Z,15.33
2023-08-16T04:12:40.659Z,22.30
2023-08-16T04:15:10.458Z,16.13
2023-08-16T04:17:38.399Z,17.03
2023-08-16T04:20:09.092Z,19.80
2023-08-16T04:22:37.090Z,16.90
2023-08-16T04:25:05.669Z,17.93
2023-08-16T04:27:33.723Z,17.67
2023-08-16T04:30:01.586Z,14.40
2023-08-16T04:32:30.432Z,16.13
2023-08-16T04:34:58.309Z,16.53
2023-08-16T04:37:27.553Z,17.67
2023-08-16T04:39:55.512Z,17.83
2023-08-16T04:42:23.630Z,18.20
2023-08-16T04:44:51.592Z,15.03
2023-08-16T04:47:19.614Z,14.30
2023-08-16T04:49:47.558Z,15.70
2023-08-16T04:52:15.450Z,18.60
2023-08-16T04:54:44.741Z,13.23
2023-08-16T04:57:12.693Z,12.93
2023-08-16T04:59:39.637Z,15.00
2023-08-16T05:02:07.595Z,20.13
2023-08-16T05:04:35.512Z,14.93
2023-08-16T05:07:03.430Z,13.33
2023-08-16T05:09:31.403Z,14.20
2023-08-16T05:12:01.771Z,17.87
2023-08-16T05:14:29.694Z,15.60
2023-08-16T05:16:57.602Z,17.70
2023-08-16T05:19:25.565Z,17.27
2023-08-16T05:21:53.566Z,18.67
2023-08-16T05:24:21.650Z,23.97
2023-08-16T05:26:49.589Z,18.30
2023-08-16T05:29:18.877Z,17.70
2023-08-16T05:31:46.821Z,20.47
2023-08-16T05:34:17.160Z,23.73
2023-08-16T05:36:49.234Z,24.40
2023-08-16T05:39:17.145Z,20.97
2023-08-16T05:41:45.080Z,24.87
2023-08-16T05:44:12.992Z,23.87
2023-08-16T05:46:42.316Z,22.57
2023-08-16T05:49:10.343Z,19.03
2023-08-16T05:51:38.306Z,18.70
2023-08-16T05:54:06.653Z,16.50
2023-08-16T05:56:34.624Z,22.27
2023-08-16T05:59:02.550Z,21.00
2023-08-16T06:01:30.482Z,30.70
2023-08-16T06:03:59.843Z,23.20
2023-08-16T06:06:27.806Z,27.97
2023-08-16T06:08:55.697Z,21.30
2023-08-16T06:11:23.579Z,27.57
2023-08-16T06:13:51.535Z,21.03
2023-08-16T06:16:19.441Z,22.30
2023-08-16T06:18:47.616Z,24.17
2023-08-16T06:21:16.886Z,21.87
2023-08-16T06:23:44.763Z,22.17
2023-08-16T06:26:12.705Z,27.57
2023-08-16T06:28:40.593Z,27.87
2023-08-16T06:31:08.597Z,27.67
2023-08-16T06:33:38.244Z,29.10
2023-08-16T06:36:06.900Z,25.63
2023-08-16T06:38:36.102Z,24.47
2023-08-16T06:41:03.996Z,25.73
2023-08-16T06:43:31.858Z,30.63
2023-08-16T06:45:59.780Z,29.40
2023-08-16T06:48:27.701Z,26.63
2023-08-16T06:50:56.068Z,25.20
2023-08-16T06:53:24.226Z,29.67
2023-08-16T06:55:55.205Z,25.47
2023-08-16T06:58:23.389Z,25.83
2023-08-16T07:00:51.515Z,25.77
2023-08-16T07:03:19.812Z,28.03
2023-08-16T07:05:47.885Z,24.30
2023-08-16T07:08:15.882Z,24.87
2023-08-16T07:10:45.463Z,28.77
2023-08-16T07:13:15.391Z,28.93
2023-08-16T07:15:43.777Z,25.90
2023-08-16T07:18:12.090Z,28.50
2023-08-16T07:20:40.773Z,26.93
2023-08-16T07:23:08.716Z,31.93
2023-08-16T07:25:38.787Z,25.57
2023-08-16T07:28:07.707Z,27.73
2023-08-16T07:30:39.350Z,29.00
2023-08-16T07:33:07.644Z,32.73
2023-08-16T07:35:35.612Z,28.13
2023-08-16T07:38:04.933Z,30.93
2023-08-16T07:40:32.987Z,29.03
2023-08-16T07:43:01.055Z,29.83
2023-08-16T07:45:29.070Z,37.47
2023-08-16T07:47:58.454Z,29.90
2023-08-16T07:50:26.394Z,35.03
2023-08-16T07:52:54.229Z,31.43
2023-08-16T07:55:30.153Z,37.83
2023-08-16T07:57:58.091Z,30.80
2023-08-16T08:00:26.213Z,30.03
2023-08-16T08:02:59.843Z,26.10
2023-08-16T08:05:31.585Z,27.20
2023-08-16T08:08:01.758Z,25.70
2023-08-16T08:10:30.571Z,23.03
2023-08-16T08:12:58.593Z,16.80
2023-08-16T08:15:26.882Z,19.67
2023-08-16T08:17:54.855Z,20.33
2023-08-16T08:20:22.769Z,22.10
2023-08-16T08:22:52.032Z,20.70
2023-08-16T08:25:20.096Z,20.53
2023-08-16T08:27:48.003Z,17.00
2023-08-16T08:30:18.229Z,16.20
2023-08-16T08:32:46.304Z,13.43
2023-08-16T08:35:14.251Z,12.87
2023-08-16T08:37:42.168Z,11.10
2023-08-16T08:40:11.747Z,10.47
2023-08-16T08:42:41.621Z,8.37
2023-08-16T08:45:10.860Z,9.77
2023-08-16T08:47:39.971Z,8.73
2023-08-16T08:50:08.913Z,10.10
2023-08-16T08:52:36.885Z,10.20
2023-08-16T08:55:05.254Z,8.83
2023-08-16T08:57:36.721Z,9.80
2023-08-16T09:00:09.754Z,11.87
2023-08-16T09:02:39.483Z,10.97
2023-08-16T09:05:11.419Z,11.10
2023-08-16T09:07:41.687Z,12.10
2023-08-16T09:10:10.873Z,10.37
2023-08-16T09:12:41.189Z,13.90
2023-08-16T09:15:09.832Z,14.10
2023-08-16T09:17:37.796Z,11.47
2023-08-16T09:20:07.544Z,12.20
2023-08-16T09:22:36.470Z,11.30
2023-08-16T09:25:04.718Z,10.13
2023-08-16T09:27:34.360Z,9.00
2023-08-16T09:30:04.010Z,11.30
2023-08-16T09:32:35.464Z,12.77
2023-08-16T09:35:04.066Z,14.93
2023-08-16T09:37:32.843Z,14.70
2023-08-16T09:40:01.090Z,18.67
2023-08-16T09:42:35.783Z,11.63
2023-08-16T09:45:05.992Z,15.17
2023-08-16T09:50:10.464Z,15.53
2023-08-16T09:52:39.015Z,11.73
2023-08-16T09:55:09.034Z,13.10
2023-08-16T09:57:37.486Z,14.20
2023-08-16T10:00:08.874Z,12.47
2023-08-16T10:05:09.548Z,11.00
2023-08-16T10:07:41.227Z,10.80
2023-08-16T10:10:11.383Z,9.80
2023-08-16T10:12:39.720Z,10.87
2023-08-16T10:15:10.337Z,11.60
2023-08-16T10:17:40.855Z,10.73
2023-08-16T10:20:16.958Z,9.17
2023-08-16T10:22:47.993Z,10.03
2023-08-16T10:25:18.528Z,12.63
2023-08-16T10:27:47.878Z,9.33
2023-08-16T10:30:23.180Z,9.30
2023-08-16T10:32:54.713Z,12.90
2023-08-16T10:35:23.142Z,9.97
2023-08-16T10:37:54.736Z,11.57
2023-08-16T10:40:27.196Z,9.77
2023-08-16T10:42:57.107Z,8.37
2023-08-16T10:48:13.409Z,9.30
2023-08-16T10:50:45.818Z,9.33
2023-08-16T10:53:19.934Z,10.73
2023-08-16T10:55:54.069Z,9.13
2023-08-16T10:58:24.310Z,8.97
2023-08-16T11:00:59.264Z,8.53
2023-08-16T11:03:34.106Z,6.63
2023-08-16T11:06:08.308Z,8.67
2023-08-16T11:08:36.516Z,7.10
2023-08-16T11:11:04.612Z,7.40
2023-08-16T11:13:32.618Z,8.40
2023-08-16T11:16:02.406Z,6.87
2023-08-16T11:18:34.445Z,8.30
2023-08-16T11:21:04.882Z,8.33
2023-08-16T11:23:33.943Z,12.67
2023-08-16T11:26:02.857Z,10.60
2023-08-16T11:28:31.370Z,10.90
2023-08-16T11:31:01.758Z,9.63
2023-08-16T11:33:33.480Z,11.43
2023-08-16T11:36:02.031Z,14.37
2023-08-16T11:38:30.593Z,11.50
2023-08-16T11:40:58.555Z,12.17
2023-08-16T11:43:30.117Z,11.53
2023-08-16T11:45:58.850Z,11.60
2023-08-16T11:48:30.779Z,11.37
2023-08-16T11:50:59.502Z,12.60
2023-08-16T11:53:33.196Z,13.93
2023-08-16T11:56:02.465Z,10.67
2023-08-16T11:58:31.123Z,13.03
2023-08-16T12:01:05.156Z,11.77
2023-08-16T12:03:36.403Z,12.77
2023-08-16T12:06:07.359Z,11.30
2023-08-16T12:08:35.561Z,13.23
2023-08-16T12:11:04.262Z,10.27
2023-08-16T12:13:35.914Z,12.33
2023-08-16T12:16:03.906Z,12.13
2023-08-16T12:18:36.516Z,11.60
2023-08-16T12:21:04.698Z,11.43
2023-08-16T12:23:32.584Z,11.13
2023-08-16T12:26:00.524Z,13.97
2023-08-16T12:28:28.542Z,12.03
2023-08-16T12:30:56.465Z,11.40
2023-08-16T12:33:24.452Z,13.23
2023-08-16T12:35:53.911Z,11.03
2023-08-16T12:38:21.824Z,16.03
2023-08-16T12:40:50.733Z,14.07
2023-08-16T12:43:19.868Z,12.63
2023-08-16T12:45:47.956Z,12.03
2023-08-16T12:48:16.039Z,13.80
2023-08-16T12:50:44.019Z,11.43
2023-08-16T12:53:28.305Z,12.73
2023-08-16T12:55:56.845Z,12.87
2023-08-16T12:58:33.435Z,12.70
2023-08-16T13:03:34.149Z,11.90
2023-08-16T13:08:49.819Z,13.33
2023-08-16T13:13:49.503Z,13.53
2023-08-16T13:16:30.310Z,15.07
2023-08-16T13:24:34.054Z,11.67
2023-08-16T13:27:07.639Z,12.07
2023-08-16T13:40:02.258Z,11.73
2023-08-16T13:47:32.410Z,10.87
2023-08-16T13:50:00.441Z,12.47
2023-08-16T13:52:28.577Z,11.47
2023-08-16T13:54:58.197Z,11.93
2023-08-16T13:57:26.864Z,14.07
2023-08-16T13:59:54.882Z,11.40
2023-08-16T14:02:22.815Z,12.80
2023-08-16T14:04:50.815Z,13.90
2023-08-16T14:07:18.830Z,13.23
2023-08-16T14:09:46.792Z,13.73
2023-08-16T14:12:16.040Z,12.80
2023-08-16T14:14:43.935Z,15.60
2023-08-16T14:17:11.902Z,13.13
2023-08-16T14:19:39.911Z,10.83
2023-08-16T14:22:07.870Z,11.27
2023-08-16T14:24:35.760Z,11.60
2023-08-16T14:27:03.673Z,10.43
2023-08-16T14:29:32.878Z,14.37
2023-08-16T14:32:00.788Z,10.43
2023-08-16T14:34:28.737Z,10.50
2023-08-16T14:36:56.818Z,10.10
2023-08-16T14:39:25.567Z,10.63
2023-08-16T14:41:53.601Z,10.37
2023-08-16T14:44:21.656Z,11.97
2023-08-16T14:46:50.941Z,9.47
2023-08-16T14:49:20.266Z,9.47
2023-08-16T14:51:48.535Z,13.83
2023-08-16T14:54:16.483Z,9.13
2023-08-16T14:56:44.405Z,12.27
2023-08-16T14:59:12.359Z,10.63
2023-08-16T15:01:40.344Z,11.17
2023-08-16T15:04:09.708Z,12.13
2023-08-16T15:06:37.698Z,9.67
2023-08-16T15:09:07.480Z,14.10
2023-08-16T15:11:35.838Z,10.63
2023-08-16T15:14:04.223Z,9.87
2023-08-16T15:16:32.910Z,15.33
2023-08-16T15:19:00.962Z,10.03
2023-08-16T15:21:30.298Z,9.70
2023-08-16T15:23:58.208Z,13.03
2023-08-16T15:26:26.108Z,9.53
2023-08-16T15:28:54.128Z,13.17
2023-08-16T15:31:22.093Z,13.73
2023-08-16T15:33:51.116Z,11.40
2023-08-16T15:36:19.210Z,9.53
2023-08-16T15:38:52.642Z,10.67
2023-08-16T15:41:22.416Z,9.23
2023-08-16T15:43:50.578Z,10.70
2023-08-16T15:46:19.507Z,9.80
2023-08-16T15:48:47.694Z,9.00
2023-08-16T15:51:15.639Z,9.03
2023-08-16T15:53:43.624Z,14.27
2023-08-16T15:56:12.855Z,13.20
2023-08-16T15:58:40.805Z,12.33
2023-08-16T16:01:08.996Z,10.73
2023-08-16T16:03:37.027Z,10.50
2023-08-16T16:06:05.386Z,8.60
2023-08-16T16:08:35.408Z,7.37
2023-08-16T16:11:03.452Z,8.80
2023-08-16T16:13:32.707Z,13.00
2023-08-16T16:16:00.619Z,8.47
2023-08-16T16:18:28.604Z,12.53
2023-08-16T16:20:58.136Z,7.60
2023-08-16T16:23:26.168Z,9.73
2023-08-16T16:25:54.298Z,6.80
2023-08-16T16:28:22.466Z,6.93
2023-08-16T16:30:51.764Z,10.77
2023-08-16T16:33:19.667Z,10.03
2023-08-16T16:35:47.591Z,10.03
2023-08-16T16:38:15.506Z,7.20
2023-08-16T16:40:43.405Z,7.97
2023-08-16T16:43:11.390Z,9.50
2023-08-16T16:45:39.399Z,7.73
2023-08-16T16:48:09.007Z,8.10
2023-08-16T16:50:37.148Z,10.63
2023-08-16T16:53:05.436Z,8.90
2023-08-16T16:55:33.391Z,10.00
2023-08-16T16:58:01.781Z,9.57
2023-08-16T17:00:30.388Z,9.47
2023-08-16T17:03:01.440Z,7.93
2023-08-16T17:05:31.147Z,7.73
2023-08-16T17:07:59.304Z,10.83
2023-08-16T17:10:27.417Z,7.53
2023-08-16T17:12:55.292Z,7.17
2023-08-16T17:15:23.243Z,6.80
2023-08-16T17:17:51.242Z,8.03
2023-08-16T17:20:19.499Z,10.93
2023-08-16T17:22:49.814Z,8.13
2023-08-16T17:25:19.168Z,7.30
2023-08-16T17:27:47.451Z,8.03
2023-08-16T17:30:15.559Z,6.40
2023-08-16T17:32:43.540Z,7.10
2023-08-16T17:35:11.478Z,6.57
2023-08-16T17:37:39.649Z,7.17
2023-08-16T17:40:10.522Z,9.50
2023-08-16T17:42:38.530Z,8.97
2023-08-16T17:45:07.627Z,5.43
2023-08-16T17:47:38.243Z,6.67
2023-08-16T17:50:07.692Z,9.57
2023-08-16T17:52:35.627Z,8.87
2023-08-16T17:55:03.692Z,5.43
2023-08-16T17:57:33.003Z,9.03
2023-08-16T18:00:01.064Z,4.83
2023-08-16T18:02:29.270Z,9.27
2023-08-16T18:04:57.237Z,11.33
2023-08-16T18:07:25.338Z,7.17
2023-08-16T18:09:53.909Z,7.83
2023-08-16T18:12:21.956Z,7.17
2023-08-16T18:14:51.168Z,6.93
2023-08-16T18:17:19.098Z,7.63
2023-08-16T18:19:47.085Z,6.37
2023-08-16T18:22:15.107Z,9.33
2023-08-16T18:24:43.066Z,7.13
2023-08-16T18:27:11.091Z,7.10
2023-08-16T18:29:40.114Z,5.93
2023-08-16T18:32:09.671Z,6.63
2023-08-16T18:34:37.707Z,8.70
2023-08-16T18:37:05.645Z,7.67
2023-08-16T18:39:33.620Z,8.23
2023-08-16T18:42:04.659Z,4.70
2023-08-16T18:44:33.645Z,5.43
2023-08-16T18:47:02.655Z,7.80
2023-08-16T18:49:31.922Z,6.47
2023-08-16T18:51:59.949Z,5.70
2023-08-16T18:54:27.830Z,6.27
2023-08-16T18:56:55.801Z,5.93
2023-08-16T18:59:23.732Z,8.50
2023-08-16T19:01:51.650Z,6.97
2023-08-16T19:04:20.588Z,6.67
2023-08-16T19:06:49.962Z,7.00
2023-08-16T19:09:17.975Z,8.37
2023-08-16T19:11:45.878Z,5.30
2023-08-16T19:14:14.007Z,4.67
2023-08-16T19:16:41.970Z,6.87
2023-08-16T19:19:13.841Z,5.83
2023-08-16T19:21:41.841Z,7.90
2023-08-16T19:24:11.133Z,4.60
2023-08-16T19:26:39.049Z,8.53
2023-08-16T19:29:07.439Z,8.30
2023-08-16T19:31:35.349Z,6.90
2023-08-16T19:34:03.270Z,6.77
2023-08-16T19:36:31.278Z,7.50
2023-08-16T19:38:59.292Z,5.50
2023-08-16T19:41:28.537Z,8.27
2023-08-16T19:43:58.924Z,6.13
2023-08-16T19:46:27.437Z,8.27
2023-08-16T19:48:55.303Z,9.80
2023-08-16T19:51:26.153Z,7.70
2023-08-16T19:53:54.077Z,9.77
2023-08-16T19:56:22.121Z,6.53
2023-08-16T19:58:51.405Z,8.53
2023-08-16T20:01:21.077Z,6.63
2023-08-16T20:03:49.272Z,8.97
2023-08-16T20:06:17.192Z,4.83
2023-08-16T20:08:45.077Z,10.07
2023-08-16T20:11:13.017Z,13.17
2023-08-16T20:13:40.900Z,8.17
2023-08-16T20:16:10.186Z,11.63
2023-08-16T20:18:38.091Z,7.27
2023-08-16T20:21:05.997Z,7.43
2023-08-16T20:23:33.909Z,6.63
2023-08-16T20:26:01.946Z,8.23
2023-08-16T20:28:29.811Z,9.57
2023-08-16T20:30:57.729Z,8.93
2023-08-16T20:33:27.071Z,8.77
2023-08-16T20:35:56.345Z,6.27
2023-08-16T20:38:24.470Z,9.10
2023-08-16T20:40:52.929Z,8.37
2023-08-16T20:43:21.418Z,7.97
2023-08-16T20:45:49.449Z,8.47
2023-08-16T20:48:17.723Z,6.73
2023-08-16T20:50:46.974Z,5.80
2023-08-16T20:53:14.909Z,7.00
2023-08-16T20:55:42.794Z,6.07
2023-08-16T20:58:10.698Z,6.90
2023-08-16T21:00:40.004Z,8.03
2023-08-16T21:03:08.010Z,7.20
2023-08-16T21:05:36.004Z,10.30
2023-08-16T21:08:05.948Z,7.90
2023-08-16T21:10:33.915Z,6.97
2023-08-16T21:13:01.852Z,9.73
2023-08-16T21:15:29.741Z,7.53
2023-08-16T21:17:57.698Z,8.87
2023-08-16T21:20:26.213Z,6.47
2023-08-16T21:22:54.297Z,7.17
2023-08-16T21:25:23.574Z,6.33
2023-08-16T21:27:52.093Z,8.73
2023-08-16T21:30:20.021Z,6.37
2023-08-16T21:32:48.006Z,9.47
2023-08-16T21:35:16.594Z,11.00
2023-08-16T21:37:45.347Z,8.07
2023-08-16T21:40:13.834Z,5.83
2023-08-16T21:42:43.571Z,9.03
2023-08-16T21:45:12.238Z,9.07
2023-08-16T21:47:40.208Z,7.10
2023-08-16T21:50:09.005Z,7.63
2023-08-16T21:52:37.358Z,6.40
2023-08-16T21:55:05.943Z,8.93
2023-08-16T21:57:34.247Z,7.83
2023-08-16T22:00:03.893Z,7.53
2023-08-16T22:02:31.814Z,8.63
2023-08-16T22:04:59.723Z,4.97
2023-08-16T22:07:28.212Z,10.47
2023-08-16T22:09:56.230Z,5.47
2023-08-16T22:12:24.099Z,6.43
2023-08-16T22:14:52.004Z,6.70
2023-08-16T22:17:21.254Z,6.10
2023-08-16T22:19:49.121Z,6.60
2023-08-16T22:22:16.994Z,5.93
2023-08-16T22:24:44.864Z,7.37
2023-08-16T22:27:12.790Z,5.03
2023-08-16T22:29:40.685Z,8.13
2023-08-16T22:32:08.615Z,6.87
2023-08-16T22:34:37.858Z,7.33
2023-08-16T22:37:05.940Z,8.07
2023-08-16T22:39:33.874Z,8.53
2023-08-16T22:42:01.767Z,7.03
2023-08-16T22:44:29.696Z,8.53
2023-08-16T22:46:57.617Z,5.27
2023-08-16T22:49:25.664Z,7.17
2023-08-16T22:51:54.915Z,6.60
2023-08-16T22:54:22.834Z,7.10
2023-08-16T22:56:50.708Z,5.50
2023-08-16T22:59:20.185Z,7.97
2023-08-16T23:01:48.131Z,6.20
2023-08-16T23:04:16.157Z,8.60
2023-08-16T23:06:44.219Z,6.97
2023-08-16T23:09:13.518Z,7.53
2023-08-16T23:11:41.370Z,7.90
2023-08-16T23:14:09.248Z,6.13
2023-08-16T23:16:37.217Z,10.67
2023-08-16T23:19:08.576Z,8.80
2023-08-16T23:21:36.617Z,6.47
2023-08-16T23:24:04.841Z,9.33
2023-08-16T23:26:34.088Z,7.07
2023-08-16T23:29:02.037Z,12.03
2023-08-16T23:31:29.881Z,8.90
2023-08-16T23:33:57.774Z,8.23
2023-08-16T23:36:25.784Z,10.97
2023-08-16T23:38:53.667Z,7.77
2023-08-16T23:41:21.572Z,7.40
2023-08-16T23:43:50.848Z,7.67
2023-08-16T23:46:18.808Z,5.80
2023-08-16T23:48:46.743Z,8.90
2023-08-16T23:51:14.701Z,7.87
2023-08-16T23:53:42.626Z,6.13
2023-08-16T23:56:10.503Z,11.97
2023-08-16T23:58:38.359Z,8.97
